Time;durP1;ratioP1;P1;durP2;ratioP2;P2;SDS_P1;SDS_P2;PMS_P1;PMS_P2;Temp;Humidity;BMP_temperature;BMP_pressure;BME280_temperature;BME280_humidity;BME280_pressure;Samples;Min_cycle;Max_cycle;Signal;HPM_P1;HPM_P2
2022/06/04 00:00:40;;;;;;;4.47;4.00;;;15.90;99.90;;;;;;5029598;28;20388;-79
2022/06/04 00:03:07;;;;;;;4.32;3.92;;;15.90;99.90;;;;;;5018734;28;20052;-79
2022/06/04 00:05:36;;;;;;;5.10;4.43;;;15.80;99.90;;;;;;5025734;28;20029;-79
2022/06/04 00:08:03;;;;;;;4.30;3.90;;;15.80;99.90;;;;;;5007429;28;20365;-79
2022/06/04 00:16:03;;;;;;;4.40;4.00;;;15.70;99.90;;;;;;5028114;28;20041;-79
2022/06/04 00:18:29;;;;;;;4.82;4.22;;;15.70;99.90;;;;;;5030519;28;20029;-80
2022/06/04 00:20:56;;;;;;;5.32;4.15;;;15.70;99.90;;;;;;5030465;28;20025;-79
2022/06/04 00:23:22;;;;;;;4.53;4.07;;;15.70;99.90;;;;;;5029607;28;20108;-79
2022/06/04 00:25:51;;;;;;;6.47;4.47;;;15.70;99.90;;;;;;5029390;28;20100;-79
2022/06/04 00:28:19;;;;;;;5.13;4.25;;;15.60;99.90;;;;;;5030352;28;20041;-79
2022/06/04 00:30:45;;;;;;;6.45;5.03;;;15.60;99.90;;;;;;5012738;28;20104;-79
2022/06/04 00:33:11;;;;;;;6.72;4.50;;;15.60;99.90;;;;;;5024825;28;20029;-80
2022/06/04 00:35:37;;;;;;;5.80;4.75;;;15.60;99.90;;;;;;5027527;28;20057;-80
2022/06/04 00:38:05;;;;;;;5.55;4.70;;;15.60;99.90;;;;;;5030153;28;20033;-79
2022/06/04 00:40:51;;;;;;;5.30;4.68;;;15.70;99.90;;;;;;5029901;28;20036;-80
2022/06/04 00:43:19;;;;;;;5.65;4.28;;;15.70;99.90;;;;;;4999112;28;20030;-79
2022/06/04 00:46:22;;;;;;;4.10;3.65;;;15.70;99.90;;;;;;5011361;28;20522;-79
2022/06/04 00:48:48;;;;;;;4.85;4.05;;;15.70;99.90;;;;;;5020974;28;20030;-79
2022/06/04 00:51:13;;;;;;;4.57;4.10;;;15.70;99.90;;;;;;5029876;28;20037;-79
2022/06/04 00:53:41;;;;;;;4.65;4.22;;;15.70;99.90;;;;;;5008461;28;20061;-80
2022/06/04 00:56:17;;;;;;;4.30;3.75;;;15.80;99.90;;;;;;5027735;28;20097;-80
2022/06/04 00:59:05;;;;;;;4.40;3.90;;;15.80;99.90;;;;;;5030616;28;20064;-80
2022/06/04 01:02:05;;;;;;;4.15;3.75;;;15.80;99.90;;;;;;5031881;28;20454;-80
2022/06/04 01:04:48;;;;;;;4.07;3.60;;;15.80;99.90;;;;;;5021730;28;20033;-80
2022/06/04 01:07:21;;;;;;;4.10;3.63;;;15.80;99.90;;;;;;5020495;28;20417;-80
2022/06/04 01:10:22;;;;;;;5.38;3.72;;;15.80;99.90;;;;;;5029453;28;20128;-80
2022/06/04 01:13:10;;;;;;;4.90;4.40;;;15.80;99.90;;;;;;4971626;28;20034;-80
2022/06/04 01:15:40;;;;;;;6.15;4.95;;;15.80;99.90;;;;;;5012203;28;20037;-80
2022/06/04 01:18:26;;;;;;;6.32;5.10;;;15.80;99.90;;;;;;5031494;28;20025;-80
2022/06/04 01:21:02;;;;;;;5.35;4.40;;;15.70;99.90;;;;;;5026410;28;20117;-80
2022/06/04 01:23:52;;;;;;;4.78;4.28;;;15.70;99.90;;;;;;5020598;28;20032;-79
2022/06/04 01:26:48;;;;;;;5.90;4.13;;;15.70;99.90;;;;;;5025446;28;20530;-79
2022/06/04 01:29:48;;;;;;;5.57;4.20;;;15.70;99.90;;;;;;5027029;28;20026;-79
2022/06/04 01:32:19;;;;;;;5.43;4.25;;;15.70;99.90;;;;;;5015932;28;20288;-79
2022/06/04 01:35:03;;;;;;;6.68;4.57;;;15.60;99.90;;;;;;5029616;28;20507;-80
2022/06/04 01:37:56;;;;;;;6.25;4.70;;;15.60;99.90;;;;;;5028289;28;20052;-79
2022/06/04 01:43:15;;;;;;;4.45;3.85;;;15.70;99.90;;;;;;5025344;28;20114;-80
2022/06/04 01:45:43;;;;;;;4.88;4.22;;;15.70;99.90;;;;;;5025455;28;20033;-79
2022/06/04 01:48:10;;;;;;;5.88;4.10;;;15.70;99.90;;;;;;5033020;28;20041;-79
2022/06/04 01:50:43;;;;;;;5.03;4.47;;;15.70;99.90;;;;;;5032573;28;20148;-79
2022/06/04 01:53:11;;;;;;;4.75;4.28;;;15.70;99.90;;;;;;5029765;28;20033;-80
2022/06/04 01:55:43;;;;;;;4.47;4.07;;;15.70;99.90;;;;;;5015190;28;20524;-79
2022/06/04 01:58:21;;;;;;;5.15;4.55;;;15.70;99.90;;;;;;5025276;28;20491;-80
2022/06/04 02:00:55;;;;;;;5.22;4.35;;;15.70;99.90;;;;;;5033841;28;20022;-80
2022/06/04 02:03:35;;;;;;;7.07;4.78;;;15.70;99.90;;;;;;5029888;28;20491;-79
2022/06/04 02:06:13;;;;;;;6.03;4.53;;;15.70;99.90;;;;;;5014784;28;20391;-80
2022/06/04 02:08:51;;;;;;;5.80;4.45;;;15.70;99.90;;;;;;5028976;28;20029;-79
2022/06/04 02:11:19;;;;;;;4.82;4.32;;;15.70;99.90;;;;;;5028711;28;20120;-80
2022/06/04 02:13:49;;;;;;;5.15;4.60;;;15.70;99.90;;;;;;5016987;28;20029;-80
2022/06/04 02:16:32;;;;;;;5.47;4.35;;;15.70;99.90;;;;;;5016184;28;20116;-80
2022/06/04 02:18:59;;;;;;;6.13;4.55;;;15.70;99.90;;;;;;5032021;28;20476;-80
2022/06/04 02:21:27;;;;;;;6.93;4.82;;;15.70;99.90;;;;;;5033162;28;20220;-80
2022/06/04 02:23:54;;;;;;;10.05;6.05;;;15.70;99.90;;;;;;5026577;28;20042;-80
2022/06/04 02:26:20;;;;;;;6.80;5.05;;;15.70;99.90;;;;;;5019500;28;20080;-80
2022/06/04 02:28:50;;;;;;;9.07;5.68;;;15.70;99.90;;;;;;5013034;28;20036;-80
2022/06/04 02:31:35;;;;;;;7.45;5.80;;;15.70;99.90;;;;;;5032135;28;20041;-80
2022/06/04 02:34:09;;;;;;;7.88;5.93;;;15.70;99.90;;;;;;5019838;28;20112;-80
2022/06/04 02:36:55;;;;;;;7.57;5.57;;;15.70;99.90;;;;;;5028129;28;20029;-79
2022/06/04 02:39:27;;;;;;;5.65;4.88;;;15.70;99.90;;;;;;5029657;28;20524;-80
2022/06/04 02:42:02;;;;;;;5.95;4.75;;;15.70;99.90;;;;;;5029207;28;20516;-80
2022/06/04 02:44:56;;;;;;;6.03;4.20;;;15.70;99.90;;;;;;5032938;28;20484;-80
2022/06/04 02:47:29;;;;;;;5.35;4.45;;;15.70;99.90;;;;;;5028491;28;20021;-80
2022/06/04 02:50:05;;;;;;;6.82;5.15;;;15.70;99.90;;;;;;5022427;28;20042;-80
2022/06/04 02:52:33;;;;;;;6.30;5.05;;;15.70;99.90;;;;;;5017204;28;20030;-80
2022/06/04 02:55:15;;;;;;;7.10;4.45;;;15.70;99.90;;;;;;5027967;28;20054;-79
2022/06/04 02:57:45;;;;;;;5.15;4.38;;;15.70;99.90;;;;;;5033016;28;20022;-80
2022/06/04 03:00:15;;;;;;;5.45;4.47;;;15.70;99.90;;;;;;5028135;28;20038;-79
2022/06/04 03:02:41;;;;;;;5.78;4.25;;;15.60;99.90;;;;;;5027973;28;20378;-79
2022/06/04 03:05:12;;;;;;;5.97;5.10;;;15.60;99.90;;;;;;5021507;28;20032;-79
2022/06/04 03:07:42;;;;;;;8.98;4.93;;;15.60;99.90;;;;;;5008030;28;20136;-80
2022/06/04 03:10:18;;;;;;;4.93;4.28;;;15.60;99.90;;;;;;5029411;28;20029;-80
2022/06/04 03:12:45;;;;;;;5.68;4.78;;;15.50;99.90;;;;;;5024865;28;20520;-80
2022/06/04 03:15:12;;;;;;;6.47;4.93;;;15.50;99.90;;;;;;5012836;28;20042;-79
2022/06/04 03:17:44;;;;;;;5.90;5.05;;;15.50;99.90;;;;;;5030872;28;20029;-79
2022/06/04 03:20:12;;;;;;;5.45;4.68;;;15.50;99.90;;;;;;5031018;28;20052;-79
2022/06/04 03:22:38;;;;;;;5.03;4.05;;;15.50;99.90;;;;;;5020894;28;20072;-80
2022/06/04 03:25:04;;;;;;;7.38;4.57;;;15.50;99.90;;;;;;5021492;28;20098;-80
2022/06/04 03:27:30;;;;;;;6.68;4.03;;;15.50;99.90;;;;;;5027782;28;20044;-80
2022/06/04 03:29:57;;;;;;;4.80;4.28;;;15.40;99.90;;;;;;4997312;28;20034;-80
2022/06/04 03:32:22;;;;;;;4.68;4.10;;;15.50;99.90;;;;;;5027937;28;20602;-80
2022/06/04 03:34:48;;;;;;;5.63;4.78;;;15.50;99.90;;;;;;5030756;28;20048;-80
2022/06/04 03:37:14;;;;;;;4.43;4.03;;;15.50;99.90;;;;;;5025173;28;20040;-79
2022/06/04 03:39:40;;;;;;;4.82;4.30;;;15.40;99.90;;;;;;5030765;28;20029;-78
2022/06/04 03:42:06;;;;;;;5.18;4.53;;;15.40;99.90;;;;;;5025635;28;20021;-80
2022/06/04 03:44:32;;;;;;;5.75;4.90;;;15.50;99.90;;;;;;5006382;28;20558;-80
2022/06/04 03:46:58;;;;;;;5.10;4.47;;;15.40;99.90;;;;;;5023245;28;20026;-79
2022/06/04 03:49:24;;;;;;;6.13;4.82;;;15.50;99.90;;;;;;5024335;28;20396;-79
2022/06/04 03:51:50;;;;;;;5.43;4.45;;;15.40;99.90;;;;;;5026794;28;20408;-80
2022/06/04 03:54:16;;;;;;;6.00;4.40;;;15.50;99.90;;;;;;5026043;28;20072;-79
2022/06/04 03:56:41;;;;;;;5.88;4.93;;;15.40;99.90;;;;;;5027393;28;20025;-80
2022/06/04 03:59:07;;;;;;;5.85;4.63;;;15.40;99.90;;;;;;5029717;28;20102;-79
2022/06/04 04:01:33;;;;;;;6.07;4.65;;;15.40;99.90;;;;;;5027174;28;20038;-79
2022/06/04 04:04:00;;;;;;;5.05;4.50;;;15.50;99.90;;;;;;5022646;28;20034;-79
2022/06/04 04:06:30;;;;;;;6.13;4.80;;;15.50;99.90;;;;;;5028314;28;20029;-79
2022/06/04 04:08:57;;;;;;;7.05;5.25;;;15.60;99.90;;;;;;5027540;28;20061;-79
2022/06/04 04:11:25;;;;;;;6.35;5.22;;;15.60;99.90;;;;;;5026120;28;20033;-79
2022/06/04 04:13:51;;;;;;;6.05;4.90;;;15.70;99.90;;;;;;5028052;28;20064;-80
2022/06/04 04:16:19;;;;;;;7.65;5.05;;;15.80;99.90;;;;;;5005293;28;20037;-79
2022/06/04 04:18:45;;;;;;;5.95;4.85;;;15.90;99.90;;;;;;5007982;28;20025;-79
2022/06/04 04:21:16;;;;;;;7.65;5.90;;;15.90;99.90;;;;;;5030657;28;20027;-79
2022/06/04 04:23:43;;;;;;;7.35;5.72;;;16.00;99.90;;;;;;5029623;28;20029;-79
2022/06/04 04:26:11;;;;;;;6.43;5.63;;;16.10;99.90;;;;;;5010329;28;20038;-79
2022/06/04 04:28:37;;;;;;;10.10;6.75;;;16.10;99.90;;;;;;5019707;28;20088;-79
2022/06/04 04:31:14;;;;;;;9.18;5.82;;;16.10;99.90;;;;;;5006071;28;20038;-80
2022/06/04 04:33:40;;;;;;;11.90;5.88;;;16.10;99.90;;;;;;5026868;28;20041;-80
2022/06/04 04:36:07;;;;;;;14.27;5.45;;;16.10;99.90;;;;;;5024972;28;20029;-80
2022/06/04 04:38:33;;;;;;;8.77;4.97;;;16.10;99.90;;;;;;5030270;28;20022;-80
2022/06/04 04:40:59;;;;;;;8.57;5.80;;;16.00;99.90;;;;;;5029380;28;20041;-79
2022/06/04 04:43:25;;;;;;;9.25;6.05;;;16.10;99.90;;;;;;5025625;28;20030;-79
2022/06/04 04:45:58;;;;;;;8.63;6.07;;;16.10;99.90;;;;;;5019981;28;20701;-79
2022/06/04 04:48:24;;;;;;;8.57;6.43;;;16.10;99.90;;;;;;5027458;28;20492;-80
2022/06/04 04:50:50;;;;;;;8.90;7.03;;;16.00;99.90;;;;;;5026504;28;20060;-79
2022/06/04 04:53:16;;;;;;;8.05;6.28;;;16.00;99.90;;;;;;5009295;28;20053;-79
2022/06/04 04:55:47;;;;;;;20.02;7.68;;;16.10;99.90;;;;;;4999061;28;20037;-79
2022/06/04 04:58:13;;;;;;;11.13;7.00;;;16.10;99.90;;;;;;5027741;28;20420;-80
2022/06/04 05:00:38;;;;;;;8.15;6.47;;;16.10;99.90;;;;;;5012981;28;20033;-79
2022/06/04 05:03:04;;;;;;;14.95;8.57;;;16.10;99.90;;;;;;5027264;28;20060;-80
2022/06/04 05:05:30;;;;;;;14.75;8.48;;;16.10;99.90;;;;;;5011576;28;20033;-79
2022/06/04 05:07:56;;;;;;;9.30;7.05;;;16.10;99.90;;;;;;5025759;28;20098;-79
2022/06/04 05:10:22;;;;;;;20.98;9.57;;;16.10;99.90;;;;;;5023837;28;20065;-79
2022/06/04 05:12:52;;;;;;;12.48;8.68;;;16.10;99.90;;;;;;5022001;28;20070;-79
2022/06/04 05:15:17;;;;;;;15.18;9.23;;;16.10;99.90;;;;;;5004036;28;20638;-79
2022/06/04 05:17:43;;;;;;;10.82;8.02;;;16.10;99.90;;;;;;5029437;28;20033;-79
2022/06/04 05:20:09;;;;;;;12.25;8.70;;;16.30;99.90;;;;;;5028802;28;20084;-79
2022/06/04 05:22:35;;;;;;;11.98;8.18;;;16.30;99.90;;;;;;5031124;28;20021;-79
2022/06/04 05:25:01;;;;;;;17.77;10.43;;;16.40;99.90;;;;;;5027114;28;20102;-79
2022/06/04 05:27:27;;;;;;;14.02;9.98;;;16.50;99.90;;;;;;5029821;28;20033;-79
2022/06/04 05:29:53;;;;;;;16.80;10.55;;;16.60;99.90;;;;;;5030378;28;20473;-79
2022/06/04 05:32:19;;;;;;;13.77;9.73;;;16.50;99.90;;;;;;5027470;28;20042;-79
2022/06/04 05:34:44;;;;;;;13.75;9.65;;;16.50;99.90;;;;;;5030393;28;20042;-79
2022/06/04 05:37:10;;;;;;;13.32;8.60;;;16.50;99.90;;;;;;5031631;28;20036;-79
2022/06/04 05:39:36;;;;;;;12.10;8.93;;;16.60;99.90;;;;;;5012344;28;20393;-79
2022/06/04 05:42:04;;;;;;;8.60;6.78;;;16.60;99.90;;;;;;5028359;28;20033;-79
2022/06/04 05:44:30;;;;;;;11.50;8.48;;;16.70;99.90;;;;;;5029637;28;20021;-79
2022/06/04 05:46:56;;;;;;;11.35;7.97;;;16.80;99.90;;;;;;5026066;28;20138;-79
2022/06/04 05:49:21;;;;;;;10.30;7.72;;;16.80;99.90;;;;;;5028358;28;20053;-79
2022/06/04 05:51:49;;;;;;;11.05;8.23;;;16.90;99.90;;;;;;5028658;28;20124;-79
2022/06/04 05:54:15;;;;;;;12.82;8.82;;;17.00;99.90;;;;;;5030742;28;20381;-79
2022/06/04 05:56:43;;;;;;;10.15;7.40;;;17.10;99.90;;;;;;5029110;28;20040;-80
2022/06/04 05:59:14;;;;;;;9.70;7.53;;;17.10;99.90;;;;;;5030751;28;20032;-79
2022/06/04 06:01:41;;;;;;;12.38;8.02;;;17.10;99.90;;;;;;5032076;28;20045;-79
2022/06/04 06:04:08;;;;;;;9.68;6.93;;;17.10;99.90;;;;;;5031796;28;20113;-79
2022/06/04 06:06:37;;;;;;;10.65;7.95;;;17.20;99.90;;;;;;5025802;28;20029;-79
2022/06/04 06:09:05;;;;;;;11.55;7.68;;;17.30;99.90;;;;;;5032372;28;20538;-78
2022/06/04 06:11:32;;;;;;;10.48;7.88;;;17.40;99.90;;;;;;5029524;28;20063;-79
2022/06/04 06:13:58;;;;;;;10.15;7.28;;;17.50;99.90;;;;;;5016075;28;20030;-79
2022/06/04 06:16:27;;;;;;;10.77;7.72;;;17.60;99.90;;;;;;5024683;28;20633;-79
2022/06/04 06:18:58;;;;;;;13.07;8.90;;;17.70;99.90;;;;;;5013101;28;20116;-79
2022/06/04 06:21:29;;;;;;;12.43;9.23;;;17.90;99.90;;;;;;5031377;28;20032;-79
2022/06/04 06:23:56;;;;;;;12.90;8.15;;;18.00;99.90;;;;;;5028894;28;20025;-79
2022/06/04 06:26:25;;;;;;;14.82;10.30;;;18.10;99.90;;;;;;5014429;28;20026;-79
2022/06/04 06:28:52;;;;;;;13.98;9.32;;;18.10;99.90;;;;;;5026353;28;20076;-79
2022/06/04 06:31:20;;;;;;;13.80;9.63;;;18.10;99.90;;;;;;5029404;28;20041;-78
2022/06/04 06:33:46;;;;;;;11.77;9.00;;;18.10;99.90;;;;;;5024824;28;20041;-79
2022/06/04 06:36:17;;;;;;;11.73;8.85;;;18.20;99.90;;;;;;5027135;28;20034;-79
2022/06/04 06:38:45;;;;;;;11.45;8.50;;;18.10;99.90;;;;;;5027927;28;20052;-78
2022/06/04 06:41:13;;;;;;;13.63;9.05;;;18.20;99.90;;;;;;5027211;28;20021;-78
2022/06/04 06:43:39;;;;;;;11.80;8.13;;;18.40;99.90;;;;;;5024326;28;20026;-79
2022/06/04 06:46:08;;;;;;;11.27;8.65;;;18.40;99.90;;;;;;5025953;28;20056;-79
2022/06/04 06:48:36;;;;;;;10.82;7.78;;;18.60;99.90;;;;;;5023893;28;20113;-79
2022/06/04 06:51:34;;;;;;;10.88;8.32;;;18.70;99.90;;;;;;5029673;28;20050;-79
2022/06/04 06:54:00;;;;;;;9.90;7.38;;;18.80;99.90;;;;;;5014261;28;20045;-79
2022/06/04 06:56:29;;;;;;;13.38;9.98;;;18.80;99.90;;;;;;5031405;28;20033;-79
2022/06/04 06:58:56;;;;;;;13.98;7.88;;;18.80;99.90;;;;;;5032404;28;20026;-78
2022/06/04 07:01:24;;;;;;;14.10;9.15;;;18.70;99.90;;;;;;5028148;28;20052;-78
2022/06/04 07:03:51;;;;;;;15.52;10.18;;;18.60;99.90;;;;;;4989515;28;20084;-78
2022/06/04 07:06:29;;;;;;;11.50;9.13;;;18.60;99.90;;;;;;5026182;28;20375;-78
2022/06/04 07:08:57;;;;;;;14.45;10.00;;;18.60;99.90;;;;;;5024403;28;20033;-79
2022/06/04 07:11:23;;;;;;;12.63;9.60;;;18.60;99.90;;;;;;5030476;28;20472;-78
2022/06/04 07:13:49;;;;;;;11.60;8.88;;;18.60;99.90;;;;;;5031075;28;20492;-79
2022/06/04 07:16:14;;;;;;;13.60;9.65;;;18.70;99.90;;;;;;5031859;28;20112;-78
2022/06/04 07:18:40;;;;;;;13.80;10.68;;;18.80;99.90;;;;;;5021941;28;20496;-78
2022/06/04 07:21:06;;;;;;;15.68;10.30;;;18.80;99.90;;;;;;5030288;28;20030;-78
2022/06/04 07:23:34;;;;;;;14.68;10.93;;;18.90;99.90;;;;;;5029268;28;20029;-78
2022/06/04 07:26:01;;;;;;;11.10;8.43;;;19.10;99.90;;;;;;5028273;28;20026;-78
2022/06/04 07:28:27;;;;;;;11.50;8.73;;;19.20;99.90;;;;;;5025970;28;20029;-78
2022/06/04 07:30:54;;;;;;;10.45;8.32;;;19.30;99.90;;;;;;5029007;28;20144;-78
2022/06/04 07:33:21;;;;;;;13.93;9.70;;;19.40;99.90;;;;;;5030596;28;20041;-78
2022/06/04 07:35:48;;;;;;;10.63;8.90;;;19.40;99.90;;;;;;5011844;28;20060;-78
2022/06/04 07:38:14;;;;;;;11.02;8.77;;;19.50;99.90;;;;;;5022426;28;20707;-78
2022/06/04 07:40:40;;;;;;;10.80;8.73;;;19.60;99.90;;;;;;5027752;28;20141;-78
2022/06/04 07:43:06;;;;;;;11.93;9.20;;;19.80;99.90;;;;;;5024935;28;20064;-78
2022/06/04 07:45:34;;;;;;;11.48;8.50;;;20.10;99.90;;;;;;5027835;28;20029;-78
2022/06/04 07:48:00;;;;;;;9.20;7.43;;;20.40;99.90;;;;;;5026798;28;20030;-78
2022/06/04 07:50:26;;;;;;;9.98;8.07;;;20.50;99.90;;;;;;5027622;28;20048;-78
2022/06/04 07:52:52;;;;;;;10.05;8.27;;;20.70;99.90;;;;;;5028007;28;20041;-79
2022/06/04 07:55:18;;;;;;;10.45;8.55;;;20.90;99.90;;;;;;5005129;28;20018;-78
2022/06/04 07:57:44;;;;;;;8.57;7.03;;;21.10;99.90;;;;;;5011715;28;20096;-79
2022/06/04 08:00:11;;;;;;;12.02;7.90;;;21.30;99.90;;;;;;5027867;28;20037;-79
2022/06/04 08:02:42;;;;;;;10.48;8.38;;;21.50;99.90;;;;;;5012795;28;20288;-80
2022/06/04 08:05:09;;;;;;;7.20;6.50;;;21.80;99.90;;;;;;5026437;28;20089;-79
2022/06/04 08:07:37;;;;;;;12.90;9.00;;;22.00;99.90;;;;;;5027928;28;20041;-80
2022/06/04 08:10:05;;;;;;;8.38;7.15;;;22.20;99.90;;;;;;5032000;28;20025;-79
2022/06/04 08:12:32;;;;;;;10.15;7.93;;;22.30;99.90;;;;;;5031150;28;20061;-80
2022/06/04 08:14:58;;;;;;;8.55;7.18;;;22.50;99.90;;;;;;5030613;28;20042;-80
2022/06/04 08:17:25;;;;;;;7.60;6.65;;;22.60;99.90;;;;;;5029816;28;20034;-79
2022/06/04 08:19:51;;;;;;;8.02;7.22;;;22.60;99.90;;;;;;5029473;28;20108;-79
2022/06/04 08:22:17;;;;;;;8.02;7.22;;;22.30;99.90;;;;;;5031694;28;20022;-79
2022/06/04 08:24:43;;;;;;;7.88;7.07;;;22.30;99.90;;;;;;5013357;28;20033;-79
2022/06/04 08:27:08;;;;;;;7.72;6.88;;;22.10;99.90;;;;;;5026025;28;20044;-79
2022/06/04 08:29:37;;;;;;;7.70;6.90;;;22.10;99.90;;;;;;5027959;28;20025;-79
2022/06/04 08:32:04;;;;;;;8.20;7.35;;;22.10;99.90;;;;;;5012664;28;20047;-78
2022/06/04 08:34:31;;;;;;;7.07;6.38;;;22.10;99.90;;;;;;5020266;28;20037;-78
2022/06/04 08:36:57;;;;;;;8.18;7.03;;;22.10;99.90;;;;;;5030542;28;20029;-78
2022/06/04 08:39:24;;;;;;;7.88;6.63;;;22.30;99.90;;;;;;5030362;28;20063;-79
2022/06/04 08:42:08;;;;;;;6.80;6.10;;;22.40;99.90;;;;;;5027236;28;20026;-78
2022/06/04 08:44:39;;;;;;;5.93;5.32;;;22.50;99.90;;;;;;5024827;28;20110;-78
2022/06/04 08:47:06;;;;;;;7.18;6.47;;;22.50;99.90;;;;;;5023055;28;20037;-79
2022/06/04 08:49:39;;;;;;;6.60;5.93;;;22.50;99.90;;;;;;5031800;28;20037;-79
2022/06/04 08:52:17;;;;;;;7.55;6.75;;;22.50;99.90;;;;;;5029072;28;20649;-79
2022/06/04 08:57:46;;;;;;;6.13;5.53;;;22.50;99.90;;;;;;5026889;28;20072;-77
2022/06/04 09:00:24;;;;;;;6.13;5.53;;;22.50;99.90;;;;;;5027686;28;20101;-79
2022/06/04 09:03:08;;;;;;;7.10;6.15;;;22.50;99.90;;;;;;4996780;28;20638;-78
2022/06/04 09:06:05;;;;;;;5.80;5.30;;;22.60;99.90;;;;;;5028771;28;20671;-78
2022/06/04 09:08:33;;;;;;;5.90;5.10;;;22.50;99.90;;;;;;5031117;28;20022;-78
2022/06/04 09:11:04;;;;;;;6.30;5.70;;;22.50;99.90;;;;;;5030339;28;20025;-79
2022/06/04 09:13:36;;;;;;;5.80;5.30;;;22.40;99.90;;;;;;4996627;28;20593;-80
2022/06/04 09:16:26;;;;;;;6.80;6.18;;;22.40;99.90;;;;;;5026713;28;20037;-79
2022/06/04 09:18:58;;;;;;;7.80;6.75;;;22.30;99.90;;;;;;5027299;28;20032;-79
2022/06/04 09:21:31;;;;;;;6.63;6.03;;;22.30;99.90;;;;;;5029397;28;20083;-78
2022/06/04 09:23:57;;;;;;;7.53;6.72;;;22.20;99.90;;;;;;5034937;28;20034;-78
2022/06/04 09:26:33;;;;;;;8.77;7.50;;;22.30;99.90;;;;;;5018210;28;20637;-79
2022/06/04 09:29:11;;;;;;;9.30;7.57;;;22.20;99.90;;;;;;5028129;28;20468;-78
2022/06/04 09:31:40;;;;;;;6.68;5.97;;;22.10;99.90;;;;;;5019922;28;20472;-77
2022/06/04 09:34:19;;;;;;;6.47;5.78;;;22.10;99.90;;;;;;5027721;28;20044;-79
2022/06/04 09:36:46;;;;;;;7.25;6.55;;;22.20;99.90;;;;;;5033393;28;20087;-77
2022/06/04 09:39:19;;;;;;;6.65;5.88;;;22.10;99.90;;;;;;5012984;28;20050;-79
2022/06/04 09:41:52;;;;;;;8.52;6.43;;;22.10;99.90;;;;;;5024469;28;20021;-78
2022/06/04 09:44:18;;;;;;;6.43;5.82;;;22.10;99.90;;;;;;5032350;28;20025;-78
2022/06/04 09:46:46;;;;;;;6.68;6.07;;;22.10;99.90;;;;;;5026313;28;20384;-78
2022/06/04 09:49:35;;;;;;;7.38;6.68;;;22.10;99.90;;;;;;5030859;28;20030;-79
2022/06/04 09:52:23;;;;;;;7.38;6.50;;;22.20;99.90;;;;;;5030759;28;20542;-78
2022/06/04 09:54:59;;;;;;;10.90;7.13;;;22.10;99.90;;;;;;5019118;28;20507;-78
2022/06/04 09:57:35;;;;;;;6.43;5.82;;;22.20;99.90;;;;;;5025884;28;20038;-78
2022/06/04 10:00:23;;;;;;;6.63;6.03;;;22.20;99.90;;;;;;5023719;28;20032;-77
2022/06/04 10:02:53;;;;;;;6.93;6.22;;;22.20;99.90;;;;;;4997127;28;20039;-78
2022/06/04 10:05:22;;;;;;;7.43;6.65;;;22.20;99.90;;;;;;5029945;28;20057;-78
2022/06/04 10:07:48;;;;;;;7.78;6.97;;;22.20;99.90;;;;;;5013610;28;20033;-77
2022/06/04 10:10:29;;;;;;;7.47;5.95;;;22.20;99.90;;;;;;5029568;28;20045;-78
2022/06/04 10:15:49;;;;;;;6.05;5.55;;;22.30;99.90;;;;;;5028945;28;20410;-78
2022/06/04 10:18:30;;;;;;;7.18;6.47;;;22.40;99.90;;;;;;5028294;28;20447;-79
2022/06/04 10:21:01;;;;;;;7.53;6.72;;;22.40;99.90;;;;;;5029434;28;20042;-77
2022/06/04 10:23:29;;;;;;;6.75;5.93;;;22.30;99.90;;;;;;5024276;28;20056;-78
2022/06/04 10:26:15;;;;;;;6.22;5.32;;;22.30;99.90;;;;;;5025362;28;20144;-78
2022/06/04 10:28:44;;;;;;;7.13;5.80;;;22.30;99.90;;;;;;5026558;28;20025;-78
2022/06/04 10:31:54;;;;;;;5.90;5.32;;;22.40;99.90;;;;;;5022279;28;20037;-77
2022/06/04 10:34:45;;;;;;;6.50;5.90;;;22.30;99.90;;;;;;5007099;28;20064;-78
2022/06/04 10:37:49;;;;;;;5.95;5.45;;;22.30;99.90;;;;;;5017439;28;20029;-77
2022/06/04 10:40:34;;;;;;;5.45;4.90;;;22.40;99.90;;;;;;4983143;28;20128;-77
2022/06/04 10:43:19;;;;;;;6.68;5.25;;;22.50;99.90;;;;;;5015101;28;20038;-77
2022/06/04 10:46:03;;;;;;;;;;;22.50;99.90;;;;;;5007604;28;20025;-77
2022/06/04 10:49:06;;;;;;;5.35;4.85;;;22.60;99.90;;;;;;5022782;28;19945;-77
2022/06/04 10:51:52;;;;;;;9.70;5.47;;;22.50;99.90;;;;;;5017730;28;20069;-77
2022/06/04 10:54:36;;;;;;;6.47;5.28;;;22.50;99.90;;;;;;5025685;28;20447;-78
2022/06/04 10:57:08;;;;;;;5.75;5.00;;;22.50;99.90;;;;;;5020774;28;20033;-78
2022/06/04 10:59:59;;;;;;;6.40;5.80;;;22.50;99.90;;;;;;5011373;28;20480;-77
2022/06/04 11:02:37;;;;;;;5.18;4.75;;;22.40;99.90;;;;;;5011351;28;20049;-78
2022/06/04 11:05:05;;;;;;;6.30;5.75;;;22.40;99.90;;;;;;5026074;28;20021;-77
2022/06/04 11:07:49;;;;;;;7.13;5.47;;;22.50;99.90;;;;;;5025771;28;20030;-77
2022/06/04 11:10:22;;;;;;;6.00;5.40;;;22.50;99.90;;;;;;5016891;28;20030;-77
2022/06/04 11:13:04;;;;;;;6.95;5.20;;;22.60;99.90;;;;;;5011554;28;20068;-77
2022/06/04 11:15:53;;;;;;;6.93;5.72;;;22.70;99.90;;;;;;5022956;28;20068;-77
2022/06/04 11:18:32;;;;;;;5.10;4.70;;;22.80;99.90;;;;;;5024243;28;20649;-77
2022/06/04 11:21:26;;;;;;;5.60;5.10;;;22.90;99.90;;;;;;5020212;28;20022;-77
2022/06/04 11:24:11;;;;;;;6.07;5.57;;;23.00;99.90;;;;;;5016817;28;20033;-77
2022/06/04 11:26:48;;;;;;;5.47;4.97;;;23.10;99.90;;;;;;5020594;28;20022;-77
2022/06/04 11:29:15;;;;;;;5.90;5.30;;;23.10;99.90;;;;;;5017541;28;20025;-77
2022/06/04 11:32:02;;;;;;;6.45;5.82;;;23.10;99.90;;;;;;5022663;28;20029;-78
2022/06/04 11:34:39;;;;;;;6.30;5.68;;;23.10;99.90;;;;;;5023226;28;20024;-77
2022/06/04 11:37:17;;;;;;;6.22;5.63;;;23.10;99.90;;;;;;5014668;28;20036;-78
2022/06/04 11:39:58;;;;;;;5.60;5.10;;;23.00;99.90;;;;;;5024339;28;20100;-77
2022/06/04 11:42:57;;;;;;;7.70;6.22;;;23.00;99.90;;;;;;5026565;28;20484;-77
2022/06/04 11:45:29;;;;;;;7.13;6.07;;;22.90;99.90;;;;;;5022632;28;21504;-76
2022/06/04 11:48:13;;;;;;;6.28;5.70;;;22.80;99.90;;;;;;5004638;28;20053;-77
2022/06/04 11:50:42;;;;;;;6.35;5.70;;;22.70;99.90;;;;;;5024098;28;20704;-77
2022/06/04 11:53:39;;;;;;;6.03;5.43;;;22.70;99.90;;;;;;5024836;28;20040;-77
2022/06/04 11:56:24;;;;;;;4.88;4.47;;;22.70;99.90;;;;;;5023269;28;20041;-77
2022/06/04 11:58:50;;;;;;;5.93;5.32;;;22.70;99.90;;;;;;5021429;28;20061;-77
2022/06/04 12:01:28;;;;;;;5.60;5.03;;;22.70;99.90;;;;;;5022461;28;20057;-77
2022/06/04 12:04:04;;;;;;;5.63;5.13;;;22.70;99.90;;;;;;5020461;28;20112;-77
2022/06/04 12:06:39;;;;;;;5.40;4.90;;;22.80;99.90;;;;;;5023253;28;20846;-77
2022/06/04 12:09:30;;;;;;;5.85;5.28;;;22.80;99.90;;;;;;5006441;28;20030;-77
2022/06/04 12:12:09;;;;;;;5.57;5.07;;;22.80;99.90;;;;;;5026578;28;20538;-78
2022/06/04 12:14:57;;;;;;;5.93;5.35;;;22.90;99.90;;;;;;5017674;28;20032;-78
2022/06/04 12:17:31;;;;;;;5.75;5.20;;;22.90;99.90;;;;;;5018716;28;20108;-76
2022/06/04 12:26:23;;;;;;;5.85;5.35;;;22.90;99.90;;;;;;5021543;28;20479;-78
2022/06/04 12:28:49;;;;;;;5.28;4.85;;;22.80;99.90;;;;;;5022093;28;20449;-77
2022/06/04 12:31:35;;;;;;;5.55;5.05;;;22.90;99.90;;;;;;5024499;28;20585;-78
2022/06/04 12:34:21;;;;;;;6.05;5.45;;;22.90;99.90;;;;;;5023753;28;20040;-78
2022/06/04 12:36:52;;;;;;;7.07;6.32;;;23.10;99.90;;;;;;5020800;28;20048;-77
2022/06/04 12:39:24;;;;;;;5.50;5.00;;;23.00;99.90;;;;;;5024901;28;20030;-78
2022/06/04 12:42:02;;;;;;;5.65;5.15;;;22.90;99.90;;;;;;5023874;28;20492;-77
2022/06/04 12:44:35;;;;;;;5.60;4.85;;;23.00;99.90;;;;;;5019434;28;20034;-77
2022/06/04 12:47:22;;;;;;;5.32;4.85;;;23.00;99.90;;;;;;5019071;28;20022;-76
2022/06/04 12:49:52;;;;;;;5.80;5.20;;;23.20;99.90;;;;;;4999951;28;20026;-76
2022/06/04 12:52:27;;;;;;;5.75;5.25;;;23.40;99.90;;;;;;5022327;28;20034;-75
2022/06/04 12:55:14;;;;;;;5.38;4.88;;;23.60;99.90;;;;;;5022321;28;20029;-76
2022/06/04 12:57:43;;;;;;;6.00;5.47;;;23.80;99.90;;;;;;5017495;28;20032;-76
2022/06/04 13:00:18;;;;;;;6.35;5.75;;;23.80;99.90;;;;;;5018061;28;20496;-75
2022/06/04 13:03:08;;;;;;;6.13;5.60;;;23.90;99.90;;;;;;5024921;28;20048;-74
2022/06/04 13:05:57;;;;;;;6.88;6.28;;;23.90;99.90;;;;;;5021629;28;20503;-76
2022/06/04 13:08:36;;;;;;;5.78;5.28;;;24.00;99.90;;;;;;5011758;28;20072;-75
2022/06/04 13:11:39;;;;;;;6.75;6.07;;;24.00;99.90;;;;;;5013849;28;20021;-75
2022/06/04 13:14:20;;;;;;;6.32;5.82;;;24.00;99.90;;;;;;5013370;28;20034;-76
2022/06/04 13:16:57;;;;;;;5.90;5.25;;;23.90;99.90;;;;;;5016987;28;20293;-78
2022/06/04 13:20:08;;;;;;;5.63;5.15;;;23.80;99.90;;;;;;5025234;28;20018;-76
2022/06/04 13:22:59;;;;;;;5.43;4.90;;;23.70;99.90;;;;;;4961363;28;20035;-76
2022/06/04 13:25:59;;;;;;;5.40;5.00;;;23.70;99.90;;;;;;4932580;28;20051;-75
2022/06/04 13:28:27;;;;;;;5.45;5.05;;;23.60;99.90;;;;;;4967002;28;20056;-78
2022/06/04 13:30:53;;;;;;;7.30;5.00;;;23.50;99.90;;;;;;5018690;28;20373;-76
2022/06/04 13:33:20;;;;;;;5.15;4.65;;;23.50;99.90;;;;;;5009054;28;20117;-76
2022/06/04 13:35:54;;;;;;;5.85;5.32;;;23.60;99.90;;;;;;5024149;28;20548;-75